Time;durP1;ratioP1;P1;durP2;ratioP2;P2;SDS_P1;SDS_P2;PMS_P1;PMS_P2;Temp;Humidity;BMP_temperature;BMP_pressure;BME280_temperature;BME280_humidity;BME280_pressure;Samples;Min_cycle;Max_cycle;Signal;HPM_P1;HPM_P2
2023/01/30 00:00:57;;;;;;;106.30;37.90;;;4.10;99.90;;;;;;4991958;28;20050;-75
2023/01/30 00:03:23;;;;;;;92.20;35.42;;;4.10;99.90;;;;;;4991079;28;20092;-75
2023/01/30 00:05:49;;;;;;;104.70;40.15;;;4.10;99.90;;;;;;4993676;28;20091;-72
2023/01/30 00:08:15;;;;;;;113.32;40.83;;;4.10;99.90;;;;;;4994808;28;20049;-74
2023/01/30 00:10:41;;;;;;;94.85;35.60;;;4.00;99.90;;;;;;4995002;28;20031;-72
2023/01/30 00:13:07;;;;;;;95.95;39.17;;;4.00;99.90;;;;;;4994002;28;20042;-73
2023/01/30 00:15:32;;;;;;;103.88;39.15;;;4.00;99.90;;;;;;4991209;28;20034;-75
2023/01/30 00:17:58;;;;;;;97.90;37.50;;;4.00;99.90;;;;;;4992495;28;20111;-76
2023/01/30 00:20:23;;;;;;;109.28;38.35;;;4.00;99.90;;;;;;4993237;28;20062;-75
2023/01/30 00:22:49;;;;;;;106.25;38.85;;;4.00;99.90;;;;;;4992261;28;20050;-76
2023/01/30 00:25:14;;;;;;;96.03;36.28;;;4.00;99.90;;;;;;5000578;28;20054;-75
2023/01/30 00:27:40;;;;;;;111.88;43.00;;;4.00;99.90;;;;;;5002293;28;20475;-77
2023/01/30 00:30:06;;;;;;;118.05;41.85;;;4.00;99.90;;;;;;5003734;28;20030;-75
2023/01/30 00:32:32;;;;;;;112.95;40.95;;;4.00;99.90;;;;;;5018948;28;20026;-73
2023/01/30 00:34:58;;;;;;;106.97;39.55;;;4.00;99.90;;;;;;5003743;28;20113;-75
2023/01/30 00:37:23;;;;;;;104.75;37.80;;;4.00;99.90;;;;;;5002865;28;20077;-72
2023/01/30 00:39:49;;;;;;;106.95;39.72;;;4.00;99.90;;;;;;5003653;28;20027;-74
2023/01/30 00:47:43;;;;;;;105.10;40.33;;;4.10;99.90;;;;;;5003575;28;20105;-74
2023/01/30 00:50:09;;;;;;;104.43;40.55;;;4.10;99.90;;;;;;5004074;28;20467;-77
2023/01/30 00:52:35;;;;;;;88.75;33.92;;;4.10;99.90;;;;;;5017714;28;20027;-72
2023/01/30 00:55:00;;;;;;;107.93;38.22;;;4.10;99.90;;;;;;5006237;28;20065;-74
2023/01/30 00:57:26;;;;;;;90.07;33.75;;;4.10;99.90;;;;;;5007223;28;20198;-77
2023/01/30 00:59:51;;;;;;;95.88;38.90;;;4.10;99.90;;;;;;5007843;28;20071;-72
2023/01/30 01:02:17;;;;;;;103.95;40.67;;;4.20;99.90;;;;;;5007310;28;20050;-75
2023/01/30 01:04:43;;;;;;;100.65;36.55;;;4.20;99.90;;;;;;5007535;28;20152;-75
2023/01/30 01:07:10;;;;;;;105.40;39.83;;;4.20;99.90;;;;;;5006657;28;20026;-75
2023/01/30 01:09:36;;;;;;;94.97;33.72;;;4.30;99.90;;;;;;5007611;28;20076;-74
2023/01/30 01:12:01;;;;;;;98.80;37.90;;;4.30;99.90;;;;;;5007693;28;20141;-75
2023/01/30 01:14:27;;;;;;;93.32;32.92;;;4.30;99.90;;;;;;5007460;28;20428;-74
2023/01/30 01:16:52;;;;;;;97.65;35.55;;;4.40;99.90;;;;;;5007186;28;20011;-73
2023/01/30 01:19:18;;;;;;;103.45;39.45;;;4.40;99.90;;;;;;5006116;28;20053;-73
2023/01/30 01:21:43;;;;;;;115.60;42.72;;;4.40;99.90;;;;;;5004879;28;20049;-71
2023/01/30 01:24:12;;;;;;;114.50;41.90;;;4.50;99.90;;;;;;5001955;28;20026;-71
2023/01/30 01:26:39;;;;;;;97.43;37.72;;;4.40;99.90;;;;;;4996767;28;20027;-77
2023/01/30 01:29:04;;;;;;;98.70;37.92;;;4.50;99.90;;;;;;4993778;28;20023;-74
2023/01/30 01:31:30;;;;;;;95.22;38.47;;;4.50;99.90;;;;;;4996330;28;20033;-73
2023/01/30 01:33:56;;;;;;;95.18;36.05;;;4.50;99.90;;;;;;4994665;28;20058;-77
2023/01/30 01:36:22;;;;;;;103.38;39.75;;;4.50;99.90;;;;;;4997235;28;20037;-73
2023/01/30 01:38:48;;;;;;;110.18;41.50;;;4.70;99.90;;;;;;4999474;28;20053;-72
2023/01/30 01:41:15;;;;;;;103.85;38.35;;;4.70;99.90;;;;;;4994627;28;20026;-72
2023/01/30 01:44:10;;;;;;;97.40;37.88;;;4.70;99.90;;;;;;4996735;28;20102;-72
2023/01/30 01:46:54;;;;;;;97.68;36.35;;;4.70;99.90;;;;;;4998693;28;20026;-73
2023/01/30 01:49:33;;;;;;;107.47;41.15;;;4.80;99.90;;;;;;4996902;28;20108;-74
2023/01/30 01:52:06;;;;;;;98.28;36.35;;;4.80;99.90;;;;;;4996265;28;20047;-73
2023/01/30 01:54:37;;;;;;;109.65;39.30;;;4.80;99.90;;;;;;5013859;28;20037;-72
2023/01/30 01:57:07;;;;;;;97.32;37.58;;;4.80;99.90;;;;;;4994582;28;20051;-75
2023/01/30 01:59:49;;;;;;;103.97;40.42;;;4.90;99.90;;;;;;4997115;28;20428;-73
2023/01/30 02:02:15;;;;;;;106.03;42.00;;;4.90;99.90;;;;;;4997101;28;20042;-76
2023/01/30 02:05:01;;;;;;;100.70;34.40;;;4.90;99.90;;;;;;4999794;28;20030;-73
2023/01/30 02:07:32;;;;;;;93.47;36.33;;;4.90;99.90;;;;;;4997164;28;20035;-73
2023/01/30 02:09:59;;;;;;;97.20;38.38;;;4.90;99.90;;;;;;4997322;28;20488;-72
2023/01/30 02:12:25;;;;;;;104.15;38.88;;;4.90;99.90;;;;;;4994314;28;20030;-75
2023/01/30 02:14:52;;;;;;;107.35;39.45;;;4.90;99.90;;;;;;4994442;28;20048;-71
2023/01/30 02:17:19;;;;;;;88.85;33.75;;;5.00;99.90;;;;;;5001538;28;20125;-74
2023/01/30 02:19:56;;;;;;;84.13;31.92;;;5.00;99.90;;;;;;4994191;28;20035;-73
2023/01/30 02:22:40;;;;;;;103.82;34.47;;;5.00;99.90;;;;;;4992571;28;20082;-74
2023/01/30 02:25:27;;;;;;;79.88;29.60;;;5.00;99.90;;;;;;4995330;28;20062;-71
2023/01/30 02:28:11;;;;;;;103.88;36.38;;;5.00;99.90;;;;;;5016631;28;20510;-75
2023/01/30 02:31:22;;;;;;;84.85;30.55;;;5.00;99.90;;;;;;4999241;28;20026;-74
2023/01/30 02:33:54;;;;;;;75.15;28.38;;;5.00;99.90;;;;;;5007949;28;20038;-75
2023/01/30 02:36:25;;;;;;;89.15;33.97;;;5.00;99.90;;;;;;4995362;28;20125;-76
2023/01/30 02:39:15;;;;;;;97.65;35.35;;;5.00;99.90;;;;;;4994389;28;20043;-75
2023/01/30 02:42:02;;;;;;;86.90;34.00;;;5.10;99.90;;;;;;4995986;28;20062;-74
2023/01/30 02:44:52;;;;;;;102.63;34.83;;;5.10;99.90;;;;;;4993625;28;20073;-76
2023/01/30 02:47:42;;;;;;;86.47;33.42;;;5.00;99.90;;;;;;5017132;28;20042;-75
2023/01/30 02:50:19;;;;;;;86.53;32.97;;;5.10;99.90;;;;;;5017451;28;20117;-76
2023/01/30 02:52:46;;;;;;;86.50;33.22;;;5.10;99.90;;;;;;4992031;28;20110;-76
2023/01/30 02:55:23;;;;;;;85.68;30.85;;;5.10;99.90;;;;;;4994015;28;20026;-75
2023/01/30 02:57:49;;;;;;;99.70;34.17;;;5.10;99.90;;;;;;4996366;28;20066;-74
2023/01/30 03:00:22;;;;;;;85.95;31.00;;;5.20;99.90;;;;;;4994554;28;20026;-75
2023/01/30 03:03:14;;;;;;;88.72;32.85;;;5.10;99.90;;;;;;4994758;28;20494;-75
2023/01/30 03:05:58;;;;;;;87.03;31.45;;;5.10;99.90;;;;;;4994860;28;20033;-76
2023/01/30 03:08:36;;;;;;;72.27;26.47;;;5.10;99.90;;;;;;5018662;28;20090;-77
2023/01/30 03:11:05;;;;;;;73.47;29.38;;;5.10;99.90;;;;;;4995279;28;20346;-73
2023/01/30 03:13:54;;;;;;;77.43;30.23;;;5.10;99.90;;;;;;4994039;28;20757;-73
2023/01/30 03:16:25;;;;;;;75.63;28.58;;;5.10;99.90;;;;;;4997296;28;20034;-75
2023/01/30 03:18:51;;;;;;;88.00;30.58;;;5.10;99.90;;;;;;5011084;28;20039;-74
2023/01/30 03:21:17;;;;;;;80.15;30.70;;;5.20;99.90;;;;;;4992554;28;20041;-74
2023/01/30 03:23:45;;;;;;;82.20;28.33;;;5.20;99.90;;;;;;4994123;28;20546;-74
2023/01/30 03:26:19;;;;;;;75.80;28.50;;;5.20;99.90;;;;;;4998794;28;20037;-73
2023/01/30 03:28:47;;;;;;;70.85;26.48;;;5.20;99.90;;;;;;5005491;28;20034;-77
2023/01/30 03:31:13;;;;;;;75.40;26.73;;;5.20;99.90;;;;;;5004842;28;20046;-75
2023/01/30 03:33:39;;;;;;;75.07;26.48;;;5.20;99.90;;;;;;5004795;28;20034;-73
2023/01/30 03:36:04;;;;;;;58.05;22.75;;;5.30;99.90;;;;;;5004613;28;20030;-77
2023/01/30 03:38:30;;;;;;;64.38;23.83;;;5.30;99.90;;;;;;5004768;28;20081;-74
2023/01/30 03:40:56;;;;;;;60.67;23.08;;;5.30;99.90;;;;;;5003979;28;20344;-73
2023/01/30 03:43:21;;;;;;;70.38;22.95;;;5.30;99.90;;;;;;5004547;28;20049;-74
2023/01/30 03:45:47;;;;;;;57.35;22.00;;;5.30;99.90;;;;;;5004598;28;20030;-73
2023/01/30 03:48:12;;;;;;;64.35;22.55;;;5.40;99.90;;;;;;5004953;28;20496;-74
2023/01/30 03:50:38;;;;;;;61.22;22.40;;;5.40;99.90;;;;;;5002778;28;20026;-74
2023/01/30 03:53:03;;;;;;;66.20;21.65;;;5.30;99.90;;;;;;5020545;28;20034;-73
2023/01/30 03:55:29;;;;;;;56.58;20.17;;;5.40;99.90;;;;;;5004274;28;20082;-74
2023/01/30 03:57:56;;;;;;;62.80;20.40;;;5.40;99.90;;;;;;5004296;28;20026;-74
2023/01/30 04:00:22;;;;;;;43.40;16.85;;;5.50;99.90;;;;;;5004780;28;20054;-73
2023/01/30 04:02:48;;;;;;;21.17;9.63;;;5.50;99.90;;;;;;5002747;28;20119;-73
2023/01/30 04:05:14;;;;;;;20.25;7.28;;;5.60;99.90;;;;;;5004526;28;20026;-73
2023/01/30 04:07:40;;;;;;;19.40;6.60;;;5.50;99.90;;;;;;5002935;28;20117;-71
2023/01/30 04:10:06;;;;;;;15.73;5.43;;;5.50;99.90;;;;;;5004142;28;20030;-75
2023/01/30 04:12:31;;;;;;;12.43;4.90;;;5.50;99.90;;;;;;5004015;28;20061;-75
2023/01/30 04:14:57;;;;;;;11.13;4.80;;;5.60;99.90;;;;;;5004509;28;20034;-78
2023/01/30 04:17:22;;;;;;;14.07;3.60;;;5.60;99.90;;;;;;5002961;28;20034;-75
2023/01/30 04:19:48;;;;;;;12.05;4.32;;;5.60;99.90;;;;;;5004308;28;20042;-75
2023/01/30 04:22:13;;;;;;;8.65;3.22;;;5.60;99.90;;;;;;5002592;28;20078;-74
2023/01/30 04:24:39;;;;;;;18.42;3.90;;;5.60;99.90;;;;;;5003892;28;20034;-74
2023/01/30 04:27:05;;;;;;;9.02;2.50;;;5.60;99.90;;;;;;5004173;28;20049;-73
2023/01/30 04:29:30;;;;;;;7.80;2.33;;;5.60;99.90;;;;;;5002405;28;20041;-73
2023/01/30 04:31:56;;;;;;;8.80;2.22;;;5.50;99.90;;;;;;5003970;28;20026;-77
2023/01/30 04:34:21;;;;;;;7.45;1.90;;;5.50;99.90;;;;;;5002488;28;20399;-74
2023/01/30 04:36:47;;;;;;;17.02;2.00;;;5.50;99.90;;;;;;5002690;28;20037;-74
2023/01/30 04:39:12;;;;;;;6.97;1.40;;;5.50;99.90;;;;;;5003977;28;20030;-74
2023/01/30 04:41:38;;;;;;;12.68;1.70;;;5.60;99.90;;;;;;5003640;28;20041;-75
2023/01/30 04:44:03;;;;;;;10.23;1.55;;;5.50;99.90;;;;;;5003674;28;20038;-74
2023/01/30 04:46:29;;;;;;;8.00;1.73;;;5.50;99.90;;;;;;5003666;28;20026;-74
2023/01/30 04:48:54;;;;;;;10.85;1.35;;;5.50;99.90;;;;;;5004108;28;20111;-74
2023/01/30 04:51:20;;;;;;;12.40;1.50;;;5.50;99.90;;;;;;5003697;28;20041;-73
2023/01/30 04:53:46;;;;;;;13.10;1.40;;;5.50;99.90;;;;;;5003311;28;20031;-74
2023/01/30 04:56:11;;;;;;;12.38;1.75;;;5.40;99.90;;;;;;5001804;28;20062;-74
2023/01/30 04:58:37;;;;;;;9.48;1.23;;;5.40;99.90;;;;;;5001879;28;20402;-75
2023/01/30 05:01:33;;;;;;;11.63;1.30;;;5.40;99.90;;;;;;5003610;28;20065;-75
2023/01/30 05:03:59;;;;;;;11.85;1.33;;;5.40;99.90;;;;;;5002298;28;20046;-73
2023/01/30 05:06:25;;;;;;;8.70;1.40;;;5.40;99.90;;;;;;5002163;28;20111;-77
2023/01/30 05:08:52;;;;;;;8.00;1.58;;;5.30;99.90;;;;;;5002302;28;20493;-72
2023/01/30 05:11:20;;;;;;;12.25;1.52;;;5.40;99.90;;;;;;5003614;28;20038;-77
2023/01/30 05:13:46;;;;;;;10.80;1.15;;;5.30;99.90;;;;;;5001989;28;20049;-76
2023/01/30 05:16:13;;;;;;;13.98;1.67;;;5.30;99.90;;;;;;5002179;28;20037;-73
2023/01/30 05:18:38;;;;;;;13.10;1.48;;;5.30;99.90;;;;;;5003117;28;20476;-70
2023/01/30 05:21:12;;;;;;;16.70;1.90;;;5.30;99.90;;;;;;5002192;28;20022;-76
2023/01/30 05:23:37;;;;;;;16.35;2.10;;;5.30;99.90;;;;;;5002108;28;20040;-73
2023/01/30 05:26:04;;;;;;;12.80;2.15;;;5.30;99.90;;;;;;5001838;28;20045;-73
2023/01/30 05:28:29;;;;;;;18.38;2.63;;;5.40;99.90;;;;;;5001840;28;20027;-78
2023/01/30 05:31:07;;;;;;;24.88;2.90;;;5.40;99.90;;;;;;5002892;28;20033;-72
2023/01/30 05:33:33;;;;;;;23.40;3.13;;;5.40;99.90;;;;;;5003133;28;20045;-75
2023/01/30 05:35:59;;;;;;;32.45;3.53;;;5.40;99.90;;;;;;5002009;28;20027;-73
2023/01/30 05:38:25;;;;;;;34.22;4.15;;;5.40;99.90;;;;;;5003160;28;20035;-74
2023/01/30 05:40:59;;;;;;;26.80;3.75;;;5.50;99.90;;;;;;5005832;28;20029;-74
2023/01/30 05:43:24;;;;;;;29.83;4.15;;;5.50;99.90;;;;;;5005760;28;20065;-72
2023/01/30 05:45:54;;;;;;;25.65;3.88;;;5.50;99.90;;;;;;5005573;28;20030;-74
2023/01/30 05:48:21;;;;;;;28.50;4.60;;;5.50;99.90;;;;;;5005410;28;20027;-76
2023/01/30 05:50:49;;;;;;;31.05;4.72;;;5.50;99.90;;;;;;5007031;28;20018;-74
2023/01/30 05:53:15;;;;;;;32.13;5.00;;;5.50;99.90;;;;;;5005554;28;20239;-73
2023/01/30 05:55:42;;;;;;;46.95;5.30;;;5.50;99.90;;;;;;5001799;28;20126;-78
2023/01/30 05:58:08;;;;;;;35.30;4.97;;;5.50;99.90;;;;;;5001310;28;20455;-79
2023/01/30 06:00:34;;;;;;;49.60;5.95;;;5.50;99.90;;;;;;5005419;28;20049;-75
2023/01/30 06:02:59;;;;;;;37.90;4.82;;;5.50;99.90;;;;;;5005612;28;20085;-74
2023/01/30 06:05:25;;;;;;;44.72;5.47;;;5.50;99.90;;;;;;5004707;28;20539;-74
2023/01/30 06:07:50;;;;;;;39.17;5.32;;;5.40;99.90;;;;;;5004675;28;20026;-74
2023/01/30 06:10:16;;;;;;;45.78;5.55;;;5.40;99.90;;;;;;5004061;28;20522;-76
2023/01/30 06:12:42;;;;;;;39.58;6.28;;;5.40;99.90;;;;;;5005736;28;20049;-74
2023/01/30 06:15:08;;;;;;;36.67;4.68;;;5.30;99.90;;;;;;5004319;28;20034;-76
2023/01/30 06:17:33;;;;;;;41.55;5.93;;;5.30;99.90;;;;;;5004098;28;20046;-74
2023/01/30 06:19:59;;;;;;;33.65;4.32;;;5.30;99.90;;;;;;5004068;28;20026;-78
2023/01/30 06:22:24;;;;;;;45.10;5.78;;;5.20;99.90;;;;;;5006494;28;20068;-76
2023/01/30 06:24:50;;;;;;;48.55;5.90;;;5.20;99.90;;;;;;5004725;28;20040;-76
2023/01/30 06:27:15;;;;;;;39.50;6.05;;;5.10;99.90;;;;;;5005028;28;20030;-73
2023/01/30 06:29:41;;;;;;;57.17;5.97;;;5.20;99.90;;;;;;5005911;28;20024;-72
2023/01/30 06:32:08;;;;;;;52.58;6.40;;;5.20;99.90;;;;;;5006053;28;20034;-75
2023/01/30 06:34:34;;;;;;;42.15;4.88;;;5.20;99.90;;;;;;5012330;28;20056;-75
2023/01/30 06:36:59;;;;;;;35.53;5.55;;;5.30;99.90;;;;;;4989584;28;20030;-73
2023/01/30 06:39:25;;;;;;;45.72;6.05;;;5.20;99.90;;;;;;4995115;28;20094;-76
2023/01/30 06:41:51;;;;;;;48.58;6.13;;;5.20;99.90;;;;;;5011096;28;20034;-78
2023/01/30 06:44:17;;;;;;;48.45;6.30;;;5.10;99.90;;;;;;4997767;28;20088;-77
2023/01/30 06:46:42;;;;;;;46.15;5.75;;;5.20;99.90;;;;;;5000111;28;20034;-76
2023/01/30 06:49:08;;;;;;;35.95;6.15;;;5.30;99.90;;;;;;5002941;28;20056;-73
2023/01/30 06:51:33;;;;;;;51.53;5.97;;;5.20;99.90;;;;;;5004787;28;20109;-76
2023/01/30 06:53:59;;;;;;;41.88;5.65;;;5.30;99.90;;;;;;5003367;28;20030;-76
2023/01/30 06:56:24;;;;;;;47.53;5.50;;;5.20;99.90;;;;;;4998696;28;20109;-73
2023/01/30 06:58:50;;;;;;;60.15;6.85;;;5.20;99.90;;;;;;4994278;28;20034;-75
2023/01/30 07:01:17;;;;;;;52.13;5.85;;;5.20;99.90;;;;;;5003586;28;20088;-73
2023/01/30 07:03:43;;;;;;;50.17;5.97;;;5.20;99.90;;;;;;5002634;28;20042;-79
2023/01/30 07:06:09;;;;;;;50.70;6.35;;;5.20;99.90;;;;;;5002440;28;20030;-74
2023/01/30 07:08:34;;;;;;;39.03;5.18;;;5.30;99.90;;;;;;5004389;28;20030;-75
2023/01/30 07:11:00;;;;;;;42.03;5.65;;;5.40;99.90;;;;;;5004787;28;20034;-75
2023/01/30 07:13:25;;;;;;;37.10;5.32;;;5.20;99.90;;;;;;5004247;28;20022;-73
2023/01/30 07:15:51;;;;;;;33.63;4.90;;;5.30;99.90;;;;;;4989414;28;20118;-73
2023/01/30 07:18:17;;;;;;;30.95;4.97;;;5.20;99.90;;;;;;4997621;28;20054;-78
2023/01/30 07:20:48;;;;;;;33.53;4.90;;;5.20;99.90;;;;;;5008213;28;20034;-74
2023/01/30 07:23:14;;;;;;;49.92;6.03;;;5.20;99.90;;;;;;5002086;28;20053;-73
2023/01/30 07:25:40;;;;;;;46.38;6.05;;;5.30;99.90;;;;;;4995974;28;20035;-73
2023/01/30 07:28:05;;;;;;;45.10;5.47;;;5.40;99.90;;;;;;5001243;28;20033;-73
2023/01/30 07:30:34;;;;;;;37.40;5.35;;;5.30;99.90;;;;;;5002132;28;20304;-76
2023/01/30 07:33:01;;;;;;;35.67;4.97;;;5.30;99.90;;;;;;4998282;28;20391;-75
2023/01/30 07:35:29;;;;;;;36.00;4.70;;;5.30;99.90;;;;;;5002338;28;20034;-74
2023/01/30 07:37:55;;;;;;;38.90;4.53;;;5.30;99.90;;;;;;5003472;28;20495;-75
2023/01/30 07:40:21;;;;;;;43.85;4.72;;;5.30;99.90;;;;;;5001951;28;20037;-75
2023/01/30 07:43:03;;;;;;;33.15;4.57;;;5.30;99.90;;;;;;4999840;28;20111;-76
2023/01/30 07:45:36;;;;;;;42.80;5.25;;;5.30;99.90;;;;;;4995498;28;20030;-77
2023/01/30 07:48:02;;;;;;;42.30;4.97;;;5.40;99.90;;;;;;5001907;28;20031;-72
2023/01/30 07:50:28;;;;;;;42.28;5.95;;;5.30;99.90;;;;;;4998536;28;20141;-73
2023/01/30 07:52:53;;;;;;;43.28;5.03;;;5.40;99.90;;;;;;4991111;28;20037;-70
2023/01/30 07:55:19;;;;;;;32.45;4.03;;;5.30;99.90;;;;;;4998638;28;20479;-75
2023/01/30 07:57:44;;;;;;;28.42;4.10;;;5.40;99.90;;;;;;5003104;28;20105;-72
2023/01/30 08:00:11;;;;;;;33.25;4.28;;;5.40;99.90;;;;;;5003355;28;20022;-72
2023/01/30 08:02:37;;;;;;;33.47;5.43;;;5.40;99.90;;;;;;5002060;28;20042;-72
2023/01/30 08:05:02;;;;;;;39.83;4.80;;;5.40;99.90;;;;;;5002701;28;20026;-76
2023/01/30 08:07:28;;;;;;;38.38;5.20;;;5.40;99.90;;;;;;4999030;28;20035;-75
2023/01/30 08:09:54;;;;;;;41.15;5.07;;;5.40;99.90;;;;;;5000556;28;20030;-77
2023/01/30 08:12:19;;;;;;;28.02;5.07;;;5.50;99.90;;;;;;5000288;28;20034;-73
2023/01/30 08:14:45;;;;;;;40.35;4.72;;;5.50;99.90;;;;;;5001689;28;20514;-76
2023/01/30 08:17:10;;;;;;;32.10;4.35;;;5.50;99.90;;;;;;5000465;28;20030;-74
2023/01/30 08:19:36;;;;;;;31.75;4.13;;;5.50;99.90;;;;;;5001009;28;20379;-72
2023/01/30 08:22:01;;;;;;;33.25;4.43;;;5.50;99.90;;;;;;5002266;28;20045;-72
2023/01/30 08:24:27;;;;;;;40.30;4.60;;;5.50;99.90;;;;;;5003157;28;20032;-77
2023/01/30 08:26:53;;;;;;;45.40;6.22;;;5.60;99.90;;;;;;5003123;28;20034;-72
2023/01/30 08:29:18;;;;;;;40.92;4.82;;;5.70;99.90;;;;;;5001325;28;20109;-72
2023/01/30 08:31:44;;;;;;;39.47;4.95;;;5.70;99.90;;;;;;5000590;28;20030;-75
2023/01/30 08:34:09;;;;;;;36.70;4.35;;;5.60;99.90;;;;;;5002474;28;20034;-79
2023/01/30 08:36:35;;;;;;;29.00;5.15;;;5.60;99.90;;;;;;5000382;28;20022;-75
2023/01/30 08:39:00;;;;;;;45.38;5.63;;;5.60;99.90;;;;;;5000790;28;21061;-76
2023/01/30 08:41:27;;;;;;;34.28;4.95;;;5.60;99.90;;;;;;5001989;28;20090;-72
2023/01/30 08:43:52;;;;;;;41.70;5.40;;;5.70;99.90;;;;;;5001328;28;20034;-72
2023/01/30 08:46:20;;;;;;;32.92;4.47;;;5.70;99.90;;;;;;5002798;28;20046;-74
2023/01/30 08:48:46;;;;;;;29.27;4.18;;;5.80;99.90;;;;;;5001663;28;20586;-73
2023/01/30 08:51:12;;;;;;;37.25;5.13;;;5.80;99.90;;;;;;5000651;28;20058;-74
2023/01/30 08:53:37;;;;;;;37.92;5.05;;;5.80;99.90;;;;;;5001727;28;20097;-73
2023/01/30 08:56:03;;;;;;;28.58;4.63;;;5.90;99.90;;;;;;5001598;28;20051;-75
2023/01/30 08:58:29;;;;;;;37.42;4.78;;;5.80;99.90;;;;;;4999154;28;20078;-74
2023/01/30 09:00:54;;;;;;;39.08;5.95;;;5.80;99.90;;;;;;5000607;28;20058;-77
2023/01/30 09:03:20;;;;;;;45.97;5.20;;;5.70;99.90;;;;;;4999835;28;20051;-75
2023/01/30 09:05:45;;;;;;;36.00;5.28;;;5.70;99.90;;;;;;4992504;28;20030;-71
2023/01/30 09:08:12;;;;;;;34.13;4.78;;;5.80;99.90;;;;;;4998779;28;20058;-72
2023/01/30 09:10:38;;;;;;;44.92;5.72;;;5.70;99.90;;;;;;4992983;28;20026;-73
2023/01/30 09:13:04;;;;;;;33.83;4.82;;;5.70;99.90;;;;;;4999844;28;20065;-73
2023/01/30 09:15:31;;;;;;;37.50;4.95;;;5.80;99.90;;;;;;4997305;28;20026;-73
2023/01/30 09:17:56;;;;;;;35.75;4.25;;;5.80;99.90;;;;;;5001110;28;20026;-72
2023/01/30 09:20:22;;;;;;;37.60;5.50;;;5.80;99.90;;;;;;5004906;28;20133;-72
2023/01/30 09:22:48;;;;;;;41.00;5.28;;;5.90;99.90;;;;;;5005747;28;20066;-74
2023/01/30 09:25:14;;;;;;;38.75;4.95;;;6.00;99.90;;;;;;5003863;28;20022;-73
2023/01/30 09:27:43;;;;;;;35.38;4.82;;;6.10;99.90;;;;;;5024778;28;20026;-76
2023/01/30 09:30:09;;;;;;;43.85;5.40;;;6.20;99.90;;;;;;5024933;28;20038;-71
2023/01/30 09:32:36;;;;;;;36.28;4.25;;;6.30;99.90;;;;;;5024569;28;20034;-71
2023/01/30 09:35:02;;;;;;;39.58;5.85;;;6.40;99.90;;;;;;5018558;28;20057;-73
2023/01/30 09:37:30;;;;;;;31.23;5.60;;;6.40;99.90;;;;;;4997133;28;20030;-72
2023/01/30 09:39:56;;;;;;;31.90;5.32;;;6.50;99.90;;;;;;4997661;28;20035;-74
2023/01/30 09:42:41;;;;;;;48.47;5.90;;;6.50;99.90;;;;;;4993494;28;20179;-73
2023/01/30 09:45:28;;;;;;;27.65;4.10;;;6.50;99.90;;;;;;4995123;28;20027;-72
2023/01/30 09:48:16;;;;;;;31.20;4.28;;;6.50;99.90;;;;;;4999211;28;20030;-74
2023/01/30 09:50:54;;;;;;;30.95;4.70;;;6.50;99.90;;;;;;5003322;28;20022;-74
2023/01/30 09:53:33;;;;;;;24.27;3.50;;;6.50;99.90;;;;;;5003679;28;20038;-73
2023/01/30 09:55:59;;;;;;;29.08;3.80;;;6.50;99.90;;;;;;5012325;28;20054;-72
2023/01/30 09:58:31;;;;;;;32.50;4.00;;;6.40;99.90;;;;;;4996578;28;20106;-77
2023/01/30 10:01:05;;;;;;;26.48;4.45;;;6.40;99.90;;;;;;5001321;28;20027;-73
2023/01/30 10:03:55;;;;;;;37.72;4.80;;;6.40;99.90;;;;;;5004878;28;20049;-72
2023/01/30 10:06:21;;;;;;;34.53;4.22;;;6.40;99.90;;;;;;5004978;28;20034;-74
2023/01/30 10:08:56;;;;;;;29.50;4.72;;;6.50;99.90;;;;;;5005422;28;20402;-73
2023/01/30 10:11:34;;;;;;;36.20;4.65;;;6.50;99.90;;;;;;4994605;28;20133;-74
2023/01/30 10:14:15;;;;;;;21.73;4.25;;;6.50;99.90;;;;;;5007392;28;20030;-71
2023/01/30 10:16:49;;;;;;;29.48;4.20;;;6.60;99.90;;;;;;5005841;28;20022;-72
2023/01/30 10:19:43;;;;;;;36.05;4.20;;;6.70;99.90;;;;;;5004974;28;20678;-73
2023/01/30 10:22:28;;;;;;;37.13;4.95;;;6.80;99.90;;;;;;4996968;28;20462;-73
2023/01/30 10:25:22;;;;;;;39.08;5.40;;;6.80;99.90;;;;;;5003899;28;20094;-73
2023/01/30 10:28:10;;;;;;;28.67;4.67;;;6.80;99.90;;;;;;4997908;28;20049;-71
2023/01/30 10:30:36;;;;;;;23.52;3.90;;;6.70;99.90;;;;;;5002956;28;20444;-72
2023/01/30 10:33:19;;;;;;;26.15;3.95;;;6.80;99.90;;;;;;5004922;28;20022;-75
2023/01/30 10:35:54;;;;;;;29.00;3.63;;;6.70;99.90;;;;;;4993478;28;20069;-73
2023/01/30 10:38:34;;;;;;;22.23;2.75;;;6.40;99.90;;;;;;4992450;28;20022;-73
2023/01/30 10:41:16;;;;;;;21.05;3.58;;;6.20;99.90;;;;;;4995138;28;20112;-71
2023/01/30 10:43:53;;;;;;;29.10;4.47;;;6.00;99.90;;;;;;4997656;28;20197;-74
2023/01/30 10:46:38;;;;;;;30.00;4.47;;;6.00;99.90;;;;;;5000689;28;20470;-74
2023/01/30 10:49:25;;;;;;;31.30;4.60;;;5.90;99.90;;;;;;5004155;28;20053;-73
2023/01/30 10:52:28;;;;;;;42.30;5.18;;;6.00;99.90;;;;;;5017225;28;20037;-72
2023/01/30 10:54:54;;;;;;;33.75;4.13;;;6.00;99.90;;;;;;5005218;28;20053;-73
2023/01/30 10:57:51;;;;;;;34.65;6.28;;;6.00;99.90;;;;;;5005151;28;20046;-74
2023/01/30 11:00:30;;;;;;;29.33;4.40;;;5.90;99.90;;;;;;5005404;28;20037;-70
2023/01/30 11:03:19;;;;;;;37.65;4.68;;;5.80;99.90;;;;;;5011744;28;20043;-72
2023/01/30 11:05:51;;;;;;;36.70;3.75;;;5.60;99.90;;;;;;5005242;28;20034;-70
2023/01/30 11:08:26;;;;;;;32.05;4.65;;;5.50;99.90;;;;;;5005648;28;20105;-71
2023/01/30 11:10:53;;;;;;;39.65;4.68;;;5.50;99.90;;;;;;5004745;28;20034;-73
2023/01/30 11:13:28;;;;;;;33.47;4.75;;;5.50;99.90;;;;;;5002350;28;20030;-72
2023/01/30 11:15:59;;;;;;;35.58;5.05;;;5.50;99.90;;;;;;5003704;28;20030;-72
2023/01/30 11:18:25;;;;;;;35.00;4.25;;;6.10;99.90;;;;;;5005435;28;20076;-71
2023/01/30 11:21:25;;;;;;;26.13;4.43;;;6.50;99.90;;;;;;5004560;28;20034;-71
2023/01/30 11:23:52;;;;;;;28.33;4.00;;;6.90;99.90;;;;;;4991356;28;20066;-73
2023/01/30 11:26:31;;;;;;;43.65;5.22;;;7.00;99.90;;;;;;4995225;28;20572;-72
2023/01/30 11:28:57;;;;;;;33.45;5.28;;;7.00;99.90;;;;;;4995696;28;20023;-71
2023/01/30 11:31:29;;;;;;;29.90;4.53;;;7.10;99.90;;;;;;5001792;28;20094;-77
2023/01/30 11:34:16;;;;;;;36.30;5.30;;;7.00;99.90;;;;;;5002987;28;20046;-73
2023/01/30 11:36:42;;;;;;;37.08;4.82;;;6.80;99.90;;;;;;5002796;28;20034;-72
2023/01/30 11:39:21;;;;;;;29.33;4.28;;;6.50;99.90;;;;;;5003970;28;20029;-72
2023/01/30 11:41:47;;;;;;;20.45;3.00;;;6.30;99.90;;;;;;5002067;28;20125;-73
2023/01/30 11:44:12;;;;;;;29.27;4.20;;;6.00;99.90;;;;;;5003905;28;20084;-73
2023/01/30 11:46:42;;;;;;;29.45;4.53;;;5.80;99.90;;;;;;5003679;28;20030;-71
2023/01/30 11:49:16;;;;;;;26.05;4.28;;;5.70;99.90;;;;;;5003912;28;20022;-72
2023/01/30 11:51:44;;;;;;;31.23;4.05;;;5.80;99.90;;;;;;5004140;28;20030;-71
2023/01/30 11:54:33;;;;;;;26.38;4.35;;;5.60;99.90;;;;;;5001196;28;20034;-74
2023/01/30 11:57:05;;;;;;;20.42;3.90;;;5.70;99.90;;;;;;4997237;28;20114;-74
2023/01/30 11:59:37;;;;;;;25.67;4.00;;;5.90;99.90;;;;;;5003335;28;20022;-73
2023/01/30 12:02:25;;;;;;;28.15;4.78;;;6.50;99.90;;;;;;5003903;28;20030;-73
2023/01/30 12:04:56;;;;;;;26.75;4.47;;;6.90;99.90;;;;;;5003272;28;20045;-75
2023/01/30 12:07:24;;;;;;;25.95;3.85;;;7.30;99.90;;;;;;5002496;28;20042;-73
2023/01/30 12:09:51;;;;;;;26.45;4.30;;;7.30;99.90;;;;;;5002269;28;20026;-72
2023/01/30 12:12:55;;;;;;;27.05;4.55;;;7.10;99.90;;;;;;5002401;28;20146;-74
2023/01/30 12:15:30;;;;;;;27.48;4.38;;;7.00;99.90;;;;;;5009435;28;20061;-74
2023/01/30 12:18:17;;;;;;;24.00;4.45;;;6.90;99.90;;;;;;5009393;28;20133;-74
2023/01/30 12:20:55;;;;;;;32.20;4.03;;;7.00;99.90;;;;;;4998237;28;20042;-73
2023/01/30 12:23:43;;;;;;;37.17;5.28;;;7.10;99.90;;;;;;4995349;28;20626;-71
2023/01/30 12:26:17;;;;;;;26.05;4.38;;;7.20;99.90;;;;;;4998816;28;20034;-75
2023/01/30 12:29:01;;;;;;;29.70;4.80;;;7.10;99.90;;;;;;4981428;28;20041;-75
2023/01/30 12:31:57;;;;;;;24.85;4.43;;;7.00;99.90;;;;;;4985445;28;20081;-75
2023/01/30 12:34:24;;;;;;;21.30;2.95;;;7.20;99.90;;;;;;4984838;28;20030;-76
2023/01/30 12:37:18;;;;;;;25.08;3.60;;;8.00;99.90;;;;;;5000605;28;20034;-74
2023/01/30 12:39:53;;;;;;;17.42;3.75;;;8.60;99.90;;;;;;4995477;28;20035;-74
2023/01/30 12:42:46;;;;;;;23.08;2.92;;;9.10;99.90;;;;;;4981515;28;20050;-73
2023/01/30 12:45:25;;;;;;;15.18;2.58;;;9.30;99.90;;;;;;4981515;28;20110;-73
2023/01/30 12:48:18;;;;;;;15.10;2.63;;;9.60;99.90;;;;;;4983807;28;20093;-75
2023/01/30 12:50:55;;;;;;;21.92;2.78;;;9.60;99.90;;;;;;4994476;28;20026;-74
2023/01/30 12:53:39;;;;;;;20.75;2.95;;;9.40;99.90;;;;;;5003112;28;20030;-71
2023/01/30 12:56:45;;;;;;;14.30;2.45;;;8.90;99.90;;;;;;5002381;28;20388;-74
2023/01/30 12:59:37;;;;;;;21.67;3.90;;;8.30;99.90;;;;;;5001714;28;20057;-73
2023/01/30 13:02:20;;;;;;;19.55;2.92;;;8.00;99.90;;;;;;4999216;28;20061;-74
2023/01/30 13:05:24;;;;;;;22.60;2.80;;;7.90;99.90;;;;;;5003178;28;20421;-73
2023/01/30 13:08:17;;;;;;;21.15;3.33;;;7.80;99.90;;;;;;4982373;28;20480;-73